Home > Products > Valid Products > TAF

000
FTUS42 KMLB 221200 AAB
TAFSFB
TAF AMD
KSFB 221256Z 2213/2312 35004KT P6SM SKC
     FM221400 01008KT P6SM SCT250
     FM222100 02009KT P6SM SCT250
     FM230100 02005KT P6SM SCT250
     FM230600 35005KT P6SM SKC=



000
FTUS42 KMLB 221200 AAB
TAFMCO
TAF AMD
KMCO 221256Z 2213/2312 36008KT P6SM FEW300
     FM221400 36008KT P6SM FEW250
     FM222100 03009KT P6SM SCT250
     FM230100 02007KT P6SM SCT250
     FM230600 36006KT P6SM SCT250=



000
FTUS42 KMLB 221200 AAA
TAFVRB
TAF AMD
KVRB 221252Z 2213/2312 29004KT P6SM BKN080
     FM221400 33006KT P6SM FEW030 BKN250
     FM221700 01010KT P6SM SCT035 SCT100 BKN250
     FM230000 01007KT P6SM FEW040 SCT120 BKN250
     FM230600 36008KT P6SM BKN250=



000
FTUS42 KMLB 221200 AAB
TAFMLB
TAF AMD
KMLB 221218Z 2212/2312 33004KT 1SM BR OVC002
     FM221300 34008KT P6SM FEW030 BKN250
     FM221800 02010KT P6SM SCT035 BKN250
     FM230000 01008KT P6SM SCT250
     FM230600 36008KT P6SM SCT250=



000
FTUS42 KMLB 221200 AAA
TAFSFB
TAF AMD
KSFB 221217Z 2212/2312 33003KT P6SM SCT003 BKN250
     FM221400 01008KT P6SM SCT250
     FM222100 02009KT P6SM SCT250
     FM230100 02005KT P6SM SCT250
     FM230600 35005KT P6SM SKC=



000
FTUS42 KMLB 221100 AAA
TAFMLB
TAF AMD
KMLB 221157Z 2212/2312 32004KT 1/4SM FG OVC002
     FM221300 34008KT P6SM FEW030 BKN250
     FM221800 02010KT P6SM SCT035 BKN250
     FM230000 01008KT P6SM SCT250
     FM230600 36008KT P6SM SCT250=



000
FTUS42 KMLB 221100 AAA
TAFMCO
TAF AMD
KMCO 221153Z 2212/2312 36006KT P6SM FEW002 FEW150 BKN300
     FM221400 36008KT P6SM BKN250
     FM222100 03009KT P6SM SCT250
     FM230100 02007KT P6SM SCT250
     FM230600 36006KT P6SM SCT250=



000
FTUS42 KMLB 221100
TAFSFB
TAF
KSFB 221131Z 2212/2312 31003KT 5SM BR SCT003 BKN250
      TEMPO 2212/2213 2SM BR
     FM221400 01008KT P6SM SCT250
     FM222100 02009KT P6SM SCT250
     FM230100 02005KT P6SM SCT250
     FM230600 35005KT P6SM SKC=



000
FTUS42 KMLB 221100
TAFDAB
TAF
KDAB 221131Z 2212/2312 31006KT P6SM SCT250
     FM221400 01010KT P6SM FEW030 BKN250
     FM221800 02012G18KT P6SM FEW035 SCT250
     FM230000 01005KT P6SM SCT250
     FM230600 35004KT P6SM SKC=



000
FTUS42 KMLB 221100
TAFMCO
TAF
KMCO 221131Z 2212/2312 36005KT 3SM BR SCT002 SCT300
      TEMPO 2212/2213 1SM BR
     FM221400 36008KT P6SM BKN250
     FM222100 03009KT P6SM SCT250
     FM230100 02007KT P6SM SCT250
     FM230600 36006KT P6SM SCT250=



000
FTUS42 KMLB 221100
TAFVRB
TAF
KVRB 221131Z 2212/2312 27004KT 1SM BR BKN002
      TEMPO 2212/2213 1/2SM FG VV002
     FM221400 33006KT P6SM FEW030 BKN250
     FM221700 01010KT P6SM SCT035 SCT100 BKN250
     FM230000 01007KT P6SM FEW040 SCT120 BKN250
     FM230600 36008KT P6SM BKN250=



000
FTUS42 KMLB 221100
TAFMLB
TAF
KMLB 221131Z 2212/2312 29004KT 1SM BR BKN002
      TEMPO 2212/2213 1/2SM FG VV002
     FM221400 34008KT P6SM FEW030 BKN250
     FM221800 02010KT P6SM SCT035 BKN250
     FM230000 01008KT P6SM SCT250
     FM230600 36008KT P6SM SCT250=



000
FTUS42 KMLB 221000 AAC
TAFSFB
TAF AMD
KSFB 221042Z 2211/2306 31003KT 5SM BR SCT003 BKN250
      TEMPO 2211/2212 2SM BR
     FM221400 01008KT P6SM SCT250
     FM222100 02009KT P6SM SCT250
     FM230100 02005KT P6SM SCT250=



000
FTUS42 KMLB 221000 AAB
TAFDAB
TAF AMD
KDAB 221042Z 2211/2306 31006KT P6SM SCT250
     FM221400 01010KT P6SM FEW030 BKN250
     FM221800 02012G18KT P6SM FEW035 SCT250
     FM230000 01005KT P6SM SCT250=



000
FTUS42 KMLB 221000 AAE
TAFMCO
TAF AMD
KMCO 221040Z 2211/2306 36005KT 1SM BR BKN004
      TEMPO 2211/2212 1/4SM FG OVC003
     FM221400 36008KT P6SM BKN250
     FM222100 03009KT P6SM SCT250
     FM230100 02007KT P6SM SCT250=



000
FTUS42 KMLB 220900 AAD
TAFMCO
TAF AMD
KMCO 220935Z 2210/2306 33003KT 5SM BR SCT003 BKN250
      TEMPO 2210/2212 1SM BR BKN003
     FM221400 36008KT P6SM BKN250
     FM222100 03009KT P6SM SCT250
     FM230100 02007KT P6SM SCT250=



000
FTUS42 KMLB 220900 AAD
TAFMCO
TAF AMD
KMCO 220935Z 2210/2306 33003KT 5SM BR SCT003 BKN250
      TEMPO 2210/2212 1SM BR BKN003
     FM221400 36008KT P6SM BKN250
     FM222100 03009KT P6SM SCT250
     FM230100 02007KT P6SM SCT250=



000
FTUS42 KMLB 220900 AAB
TAFVRB
TAF AMD
KVRB 220932Z 2210/2306 27004KT 1SM BR BKN002
      TEMPO 2210/2212 1/4SM FG VV002
     FM221400 33006KT P6SM FEW030 BKN250
     FM221700 01010KT P6SM SCT035 SCT100 BKN250
     FM230000 01007KT P6SM FEW040 SCT120 BKN250=



000
FTUS42 KMLB 220900 AAB
TAFMLB
TAF AMD
KMLB 220931Z 2210/2306 29004KT 1SM BR BKN002
      TEMPO 2210/2212 1/2SM FG VV002
     FM221400 34008KT P6SM FEW030 BKN250
     FM221800 02010KT P6SM SCT035 BKN250
     FM230000 01008KT P6SM SCT250=



000
FTUS42 KMLB 220900 AAA
TAFVRB
TAF AMD
KVRB 220904Z 2209/2306 26003KT 3SM BR SCT002 BKN250
      TEMPO 2209/2212 1SM BR BKN002
     FM221400 33006KT P6SM FEW030 BKN250
     FM221700 01010KT P6SM SCT035 SCT100 BKN250
     FM230000 01007KT P6SM FEW040 SCT120 BKN250=



000
FTUS42 KMLB 220900 AAA
TAFMLB
TAF AMD
KMLB 220903Z 2209/2306 26003KT 5SM BR SCT002 BKN250
      TEMPO 2209/2212 3SM BR BKN002
     FM221400 34008KT P6SM FEW030 BKN250
     FM221800 02010KT P6SM SCT035 BKN250
     FM230000 01008KT P6SM SCT250=



000
FTUS42 KMLB 220900 AAC
TAFMCO
TAF AMD
KMCO 220902Z 2209/2306 33003KT 5SM BR SCT003 BKN250
      TEMPO 2209/2212 2SM BR BKN003
     FM221400 36008KT P6SM BKN250
     FM222100 03009KT P6SM SCT250
     FM230100 02007KT P6SM SCT250=



000
FTUS42 KMLB 220800 AAA
TAFDAB
TAF AMD
KDAB 220815Z 2208/2306 30004KT 5SM BR FEW002 BKN250
      TEMPO 2209/2212 2SM BR BKN002
     FM221400 01010KT P6SM FEW030 BKN250
     FM221800 02012G18KT P6SM FEW035 SCT250
     FM230000 01005KT P6SM SCT250=



000
FTUS42 KMLB 220800 AAB
TAFSFB
TAF AMD
KSFB 220814Z 2208/2306 31003KT 2SM BR BKN003
      TEMPO 2208/2211 1SM BR VV001
     FM221400 01008KT P6SM BKN250
     FM222100 02009KT P6SM SCT250
     FM230100 02005KT P6SM SCT250=



000
FTUS42 KMLB 220800 AAB
TAFMCO
TAF AMD
KMCO 220813Z 2208/2306 VRB03KT 5SM BR SCT003 BKN250
      TEMPO 2208/2211 2SM BR BKN003
     FM221400 36008KT P6SM BKN250
     FM222100 03009KT P6SM SCT250
     FM230100 02007KT P6SM SCT250=



000
FTUS42 KMLB 220600 AAA
TAFSFB
TAF AMD
KSFB 220650Z 2207/2306 31003KT 5SM BR SCT003
      TEMPO 2207/2211 1SM BR BKN003
     FM221400 01008KT P6SM BKN250
     FM222100 02009KT P6SM SCT250
     FM230100 02005KT P6SM SCT250=



000
FTUS42 KMLB 220600 AAA
TAFMCO
TAF AMD
KMCO 220620Z 2206/2306 VRB03KT P6SM SCT005 BKN250
      TEMPO 2206/2209 BKN005
     FM221400 36008KT P6SM BKN250
     FM222100 03009KT P6SM SCT250
     FM230100 02007KT P6SM SCT250=



000
FTUS42 KMLB 220500
TAFDAB
TAF
KDAB 220522Z 2206/2306 VRB03KT P6SM BKN250
     FM221400 01010KT P6SM FEW030 BKN250
     FM221800 02012G18KT P6SM FEW035 SCT250
     FM230000 01005KT P6SM SCT250=



000
FTUS42 KMLB 220500
TAFMLB
TAF
KMLB 220522Z 2206/2306 VRB03KT P6SM FEW035 BKN250
     FM221400 34008KT P6SM FEW030 BKN250
     FM221800 02010KT P6SM SCT035 BKN250
     FM230000 01008KT P6SM SCT250=



000
FTUS42 KMLB 220500
TAFVRB
TAF
KVRB 220522Z 2206/2306 VRB03KT P6SM FEW035 BKN250
     FM221400 33006KT P6SM FEW030 BKN250
     FM221700 01010KT P6SM SCT035 SCT100 BKN250
     FM230000 01007KT P6SM FEW040 SCT120 BKN250=



000
FTUS42 KMLB 220500
TAFMCO
TAF
KMCO 220522Z 2206/2306 VRB03KT P6SM FEW015 BKN250
     FM221400 36008KT P6SM BKN250
     FM222100 03009KT P6SM SCT250
     FM230100 02007KT P6SM SCT250=



000
FTUS42 KMLB 220500
TAFSFB
TAF
KSFB 220522Z 2206/2306 VRB03KT P6SM FEW015 BKN250
     FM221400 01008KT P6SM BKN250
     FM222100 02009KT P6SM SCT250
     FM230100 02005KT P6SM SCT250=



000
FTUS42 KMLB 220500
TAFVRB
TAF
KVRB 220522Z 2206/2306 VRB03KT P6SM FEW035 BKN250
     FM221400 33006KT P6SM FEW030 BKN250
     FM221700 01010KT P6SM SCT035 SCT100 BKN250
     FM230000 01007KT P6SM FEW040 SCT120 BKN250=



000
FTUS42 KMLB 220500
TAFMLB
TAF
KMLB 220522Z 2206/2306 VRB03KT P6SM FEW035 BKN250
     FM221400 34008KT P6SM FEW030 BKN250
     FM221800 02010KT P6SM SCT035 BKN250
     FM230000 01008KT P6SM SCT250=



000
FTUS42 KMLB 220500
TAFDAB
TAF
KDAB 220522Z 2206/2306 VRB03KT P6SM BKN250
     FM221400 01010KT P6SM FEW030 BKN250
     FM221800 02012G18KT P6SM FEW035 SCT250
     FM230000 01005KT P6SM SCT250=



000
FTUS42 KMLB 220500
TAFMCO
TAF
KMCO 220522Z 2206/2306 VRB03KT P6SM FEW015 BKN250
     FM221400 36008KT P6SM BKN250
     FM222100 03009KT P6SM SCT250
     FM230100 02007KT P6SM SCT250=



000
FTUS42 KMLB 220500
TAFSFB
TAF
KSFB 220522Z 2206/2306 VRB03KT P6SM FEW015 BKN250
     FM221400 01008KT P6SM BKN250
     FM222100 02009KT P6SM SCT250
     FM230100 02005KT P6SM SCT250=



000
FTUS42 KMLB 220300 AAA
TAFMCO
TAF AMD
KMCO 220301Z 2203/2224 VRB03KT P6SM BKN250
     FM221400 36007KT P6SM SCT250=



000
FTUS42 KMLB 212300
TAFVRB
TAF
KVRB 212327Z 2200/2224 20005KT P6SM FEW035 BKN250
     FM221400 33006KT P6SM FEW030 BKN250
     FM221700 01010KT P6SM SCT030 SCT100 BKN250=



000
FTUS42 KMLB 212300
TAFMLB
TAF
KMLB 212327Z 2200/2224 19006KT P6SM FEW035 BKN250
     FM221400 34008KT P6SM FEW030 BKN250
     FM221800 02010KT P6SM SCT030 BKN250=



000
FTUS42 KMLB 212300
TAFMCO
TAF
KMCO 212327Z 2200/2224 VRB03KT P6SM FEW050 OVC260
     FM221400 36007KT P6SM SCT250=



000
FTUS42 KMLB 212300
TAFSFB
TAF
KSFB 212327Z 2200/2224 VRB03KT P6SM FEW050 BKN250
     FM221400 36009KT P6SM SCT250=



000
FTUS42 KMLB 212300
TAFDAB
TAF
KDAB 212327Z 2200/2224 VRB03KT P6SM FEW030 BKN200
     FM221500 01011KT P6SM FEW030 SCT250=



000
FTUS42 KMLB 212300
TAFDAB
TAF
KDAB 212327Z 2200/2224 VRB03KT P6SM FEW030 BKN200
     FM221500 01011KT P6SM FEW030 SCT250=



000
FTUS42 KMLB 212300
TAFMCO
TAF
KMCO 212327Z 2200/2224 VRB03KT P6SM FEW050 OVC260
     FM221400 36007KT P6SM SCT250=



000
FTUS42 KMLB 212300
TAFSFB
TAF
KSFB 212327Z 2200/2224 VRB03KT P6SM FEW050 BKN250
     FM221400 36009KT P6SM SCT250=



000
FTUS42 KMLB 212300
TAFVRB
TAF
KVRB 212327Z 2200/2224 20005KT P6SM FEW035 BKN250
     FM221400 33006KT P6SM FEW030 BKN250
     FM221700 01010KT P6SM SCT030 SCT100 BKN250=



000
FTUS42 KMLB 212300
TAFMLB
TAF
KMLB 212327Z 2200/2224 19006KT P6SM FEW035 BKN250
     FM221400 34008KT P6SM FEW030 BKN250
     FM221800 02010KT P6SM SCT030 BKN250=



000
FTUS42 KMLB 212100 AAA
TAFMCO
TAF AMD
KMCO 212110Z 2121/2218 17005KT P6SM VCSH SCT050 BKN210 OVC260
     FM220000 VRB03KT P6SM BKN250
     FM221400 36006KT P6SM BKN250=



000
FTUS42 KMLB 211800 AAA
TAFVRB
TAF AMD
KVRB 211814Z 2118/2218 09006KT P6SM VCTS SCT025CB BKN040
      TEMPO 2118/2119 VRB10G20KT 1SM +TSRA BKN025CB
     FM212000 15006KT P6SM VCSH SCT035 BKN100
     FM220000 23003KT P6SM FEW040 SCT100 OVC250
     FM221400 32004KT P6SM FEW080 BKN250
     FM221700 01010KT P6SM FEW030 SCT060 BKN250=



000
FTUS42 KMLB 211700
TAFDAB
TAF
KDAB 211727Z 2118/2218 30004KT P6SM SCT040 BKN250
     FM211900 06007KT P6SM SCT040 BKN250
     FM220000 00000KT P6SM BKN250
     FM221500 01010KT P6SM FEW030 BKN250=



000
FTUS42 KMLB 211700
TAFMLB
TAF
KMLB 211727Z 2118/2218 20004KT P6SM FEW035 SCT080 BKN250
     FM220000 21003KT P6SM BKN250
     FM221500 01010KT P6SM FEW030 SCT060 BKN250=



000
FTUS42 KMLB 211700
TAFVRB
TAF
KVRB 211727Z 2118/2218 09006KT P6SM VCTS SCT025CB BKN040
      TEMPO 2118/2119 3SM TSRA BKN025CB
     FM212000 15006KT P6SM VCSH SCT035 BKN100
     FM220000 23003KT P6SM FEW040 SCT100 OVC250
     FM221400 32004KT P6SM FEW080 BKN250
     FM221700 01010KT P6SM FEW030 SCT060 BKN250=



000
FTUS42 KMLB 211700
TAFSFB
TAF
KSFB 211727Z 2118/2218 VRB04KT P6SM SCT035 BKN250
     FM220000 29003KT P6SM BKN250
     FM221400 36007KT P6SM BKN250=



000
FTUS42 KMLB 211700
TAFMCO
TAF
KMCO 211727Z 2118/2218 21003KT P6SM SCT035 BKN250
     FM220000 30003KT P6SM BKN250
     FM221400 36006KT P6SM BKN250=



000
FTUS42 KMLB 211700 AAA
TAFVRB
TAF AMD
KVRB 211710Z 2117/2212 09006KT P6SM VCTS SCT025CB BKN040
      TEMPO 2118/2120 VRB10G18KT 2SM +TSRA BKN020CB
     FM212000 15006KT P6SM VCSH SCT040 BKN120
     FM220000 22003KT P6SM SCT090 OVC250=



000
FTUS42 KMLB 211500 AAA
TAFMCO
TAF AMD
KMCO 211511Z 2115/2212 24004KT P6SM FEW060 OVC250
     FM212300 30003KT P6SM SCT090 BKN250=



000
FTUS42 KMLB 211100
TAFMCO
TAF
KMCO 211140Z 2112/2212 00000KT P6SM FEW050 SCT140 OVC250
     FM211500 28004KT P6SM FEW060 OVC250
     FM212300 30003KT P6SM SCT090 BKN250=



000
FTUS42 KMLB 211100
TAFDAB
TAF
KDAB 211140Z 2112/2212 00000KT P6SM SCT150 BKN250
     FM211500 26003KT P6SM FEW050 BKN250
     FM211900 06007KT P6SM SCT040 BKN250
     FM220000 00000KT P6SM SCT090 BKN250=



000
FTUS42 KMLB 211100
TAFSFB
TAF
KSFB 211140Z 2112/2212 00000KT P6SM FEW150 OVC250
     FM211500 26005KT P6SM FEW060 OVC250
     FM212300 29003KT P6SM SCT090 BKN250=



000
FTUS42 KMLB 211100
TAFDAB
TAF
KDAB 211140Z 2112/2212 00000KT P6SM SCT150 BKN250
     FM211500 26003KT P6SM FEW050 BKN250
     FM211900 06007KT P6SM SCT040 BKN250
     FM220000 00000KT P6SM SCT090 BKN250=



000
FTUS42 KMLB 211100
TAFMCO
TAF
KMCO 211140Z 2112/2212 00000KT P6SM FEW050 SCT140 OVC250
     FM211500 28004KT P6SM FEW060 OVC250
     FM212300 30003KT P6SM SCT090 BKN250=



000
FTUS42 KMLB 211100
TAFSFB
TAF
KSFB 211140Z 2112/2212 00000KT P6SM FEW150 OVC250
     FM211500 26005KT P6SM FEW060 OVC250
     FM212300 29003KT P6SM SCT090 BKN250=



000
FTUS42 KMLB 211100
TAFVRB
TAF
KVRB 211140Z 2112/2212 00000KT P6SM SCT050 BKN140 OVC250
     FM211400 23005KT P6SM FEW040 SCT120 OVC250
     FM211800 13007KT P6SM VCSH SCT040 SCT090 OVC250
     FM220000 22003KT P6SM SCT090 OVC250=



000
FTUS42 KMLB 211100
TAFVRB
TAF
KVRB 211140Z 2112/2212 00000KT P6SM SCT050 BKN140 OVC250
     FM211400 23005KT P6SM FEW040 SCT120 OVC250
     FM211800 13007KT P6SM VCSH SCT040 SCT090 OVC250
     FM220000 22003KT P6SM SCT090 OVC250=



000
FTUS42 KMLB 211100
TAFMLB
TAF
KMLB 211140Z 2112/2212 00000KT P6SM BKN140 OVC250
     FM211400 23005KT P6SM FEW040 OVC250
     FM211800 09007KT P6SM SCT040 OVC250
     FM220000 21003KT P6SM SCT090 BKN250=



000
FTUS42 KMLB 211100
TAFMLB
TAF
KMLB 211140Z 2112/2212 00000KT P6SM BKN140 OVC250
     FM211400 23005KT P6SM FEW040 OVC250
     FM211800 09007KT P6SM SCT040 OVC250
     FM220000 21003KT P6SM SCT090 BKN250=



000
FTUS42 KMLB 210900 AAA
TAFMCO
TAF AMD
KMCO 210900Z 2109/2206 VRB03KT P6SM FEW060 SCT150 OVC250
     FM211500 28004KT P6SM SCT050 BKN120 OVC250
     FM212300 30003KT P6SM SCT090 BKN250=



000
FTUS42 KMLB 210500
TAFMLB
TAF
KMLB 210535Z 2106/2206 19003KT P6SM SCT050 BKN150 OVC250
     FM211400 23005KT P6SM FEW040 BKN120 OVC250
     FM211800 09007KT P6SM SCT040 BKN150 OVC250
     FM220000 21003KT P6SM SCT090 BKN250=



000
FTUS42 KMLB 210500
TAFSFB
TAF
KSFB 210535Z 2106/2206 VRB02KT P6SM FEW060 BKN150 OVC250
     FM211500 26005KT P6SM SCT050 BKN120 OVC250
     FM212300 29003KT P6SM SCT090 BKN250=



000
FTUS42 KMLB 210500
TAFDAB
TAF
KDAB 210535Z 2106/2206 00000KT P6SM OVC150
     FM211500 26003KT P6SM FEW040 BKN120 OVC250
     FM211900 06007KT P6SM SCT040 BKN150 OVC250
     FM220000 00000KT P6SM SCT090 BKN250=



000
FTUS42 KMLB 210500
TAFMCO
TAF
KMCO 210535Z 2106/2206 VRB03KT P6SM SCT060 BKN150 OVC250
     FM211500 28004KT P6SM SCT050 BKN120 OVC250
     FM212300 30003KT P6SM SCT090 BKN250=



000
FTUS42 KMLB 210500
TAFVRB
TAF
KVRB 210535Z 2106/2206 VRB03KT P6SM SCT050 BKN150 OVC250
     FM211400 23005KT P6SM FEW040 BKN120 OVC250
     FM211800 13007KT P6SM VCSH SCT040 BKN100 OVC250
     FM220000 22003KT P6SM SCT090 BKN250=



000
FTUS42 KMLB 210200 AAA
TAFMCO
TAF AMD
KMCO 210258Z 2103/2124 VRB03KT P6SM FEW060 SCT150 OVC230
     FM211400 28004KT P6SM SCT030 BKN150 OVC250=



000
FTUS42 KMLB 202300 RRA
TAFMLB
TAF
KMLB 202343Z 2100/2124 14005KT P6SM FEW035 BKN250
     FM210200 17003KT P6SM BKN250
     FM211400 26003KT P6SM SCT030 BKN150 OVC250
     FM211700 07007KT P6SM FEW035 SCT150 BKN250=



000
FTUS42 KMLB 202300 RRA
TAFMCO
TAF
KMCO 202343Z 2100/2124 09009KT P6SM FEW035 SCT060 BKN240
     FM210200 VRB02KT P6SM BKN250
     FM211400 28004KT P6SM SCT030 BKN150 OVC250=



000
FTUS42 KMLB 202300 RRA
TAFDAB
TAF
KDAB 202343Z 2100/2124 VRB03KT P6SM FEW030 SCT130 SCT250
     FM211400 26004KT P6SM SCT030 SCT150 BKN250
     FM211900 07006KT P6SM FEW035 SCT150 BKN250=



000
FTUS42 KMLB 202300 RRA
TAFSFB
TAF
KSFB 202343Z 2100/2124 12008KT P6SM SCT060 BKN250
     FM210200 VRB02KT P6SM BKN250
     FM211400 29004KT P6SM SCT030 BKN150 OVC250=



000
FTUS42 KMLB 202300 RRA
TAFVRB
TAF
KVRB 202343Z 2100/2124 VRB03KT P6SM BKN250
     FM211400 22004KT P6SM SCT030 BKN150 OVC220
     FM211700 13007KT P6SM FEW035 BKN150 OVC250=



000
FTUS42 KMLB 202100 AAA
TAFMCO
TAF AMD
KMCO 202104Z 2021/2118 19006KT P6SM FEW050 BKN250
     FM210100 VRB02KT P6SM BKN250
     FM211400 28004KT P6SM SCT030 BKN150 OVC250=



000
FTUS42 KMLB 201700 RRA
TAFMCO
TAF
KMCO 201743Z 2018/2118 15005KT P6SM SCT045
     FM210100 VRB02KT P6SM BKN250
     FM211400 28004KT P6SM SCT030 BKN150 OVC250=



000
FTUS42 KMLB 201700 RRA
TAFMLB
TAF
KMLB 201743Z 2018/2118 11008KT P6SM SCT040
     FM210100 17003KT P6SM BKN250
     FM211400 24003KT P6SM SCT030 BKN150 OVC250=



000
FTUS42 KMLB 201700 RRA
TAFVRB
TAF
KVRB 201743Z 2018/2118 12008KT P6SM FEW040 SCT250
     FM210000 18003KT P6SM BKN250
     FM211400 22004KT P6SM SCT030 BKN150 OVC220=



000
FTUS42 KMLB 201700 RRA
TAFDAB
TAF
KDAB 201743Z 2018/2118 08006KT P6SM SCT040 SCT060
     FM202200 00000KT P6SM BKN250
     FM211400 26004KT P6SM SCT030 BKN150 OVC250=



000
FTUS42 KMLB 201700 RRA
TAFSFB
TAF
KSFB 201743Z 2018/2118 13006KT P6SM SCT045
      TEMPO 2018/2020 BKN045
     FM210100 VRB02KT P6SM BKN250
     FM211400 29004KT P6SM SCT030 BKN150 OVC250=



000
FTUS42 KMLB 201400 AAA
TAFMCO
TAF AMD
KMCO 201456Z 2015/2112 VRB03KT P6SM FEW035
     FM201700 15005KT P6SM SCT040
     FM210100 VRB02KT P6SM FEW040 BKN250=



000
FTUS42 KMLB 201100
TAFMCO
TAF
KMCO 201137Z 2012/2112 VRB03KT P6SM SKC
     FM201500 14006KT P6SM SCT040
     FM210100 VRB02KT P6SM FEW040 BKN250=



000
FTUS42 KMLB 201100
TAFVRB
TAF
KVRB 201137Z 2012/2112 00000KT P6SM SKC
     FM201400 12008KT P6SM FEW040 SCT250
     FM210000 18003KT P6SM FEW040 OVC250=



000
FTUS42 KMLB 201100
TAFDAB
TAF
KDAB 201137Z 2012/2112 08006KT P6SM VCSH BKN045
     FM201400 08006KT P6SM SCT045
     FM202200 00000KT P6SM SCT040 BKN250=



000
FTUS42 KMLB 201100
TAFSFB
TAF
KSFB 201137Z 2012/2112 03004KT P6SM SKC
     FM201400 13006KT P6SM SCT040
     FM210100 VRB02KT P6SM FEW040 BKN250=



000
FTUS42 KMLB 201100
TAFMLB
TAF
KMLB 201137Z 2012/2112 VRB02KT P6SM SKC
     FM201400 11008KT P6SM SCT040
     FM210100 17003KT P6SM SCT040 BKN250=



000
FTUS42 KMLB 200900 AAA
TAFVRB
TAF AMD
KVRB 200943Z 2010/2106 00000KT P6SM FEW250
      TEMPO 2010/2012 1SM BR
     FM201400 12008KT P6SM FEW040 SCT250
     FM210000 16003KT P6SM SCT040 OVC250=



000
FTUS42 KMLB 200900 AAA
TAFVRB
TAF AMD
KVRB 200943Z 2010/2106 00000KT P6SM FEW250
      TEMPO 2010/2012 1SM BR
     FM201400 12008KT P6SM FEW040 SCT250
     FM210000 16003KT P6SM SCT040 OVC250=



000
FTUS42 KMLB 200800 AAA
TAFMCO
TAF AMD
KMCO 200859Z 2009/2106 VRB03KT P6SM FEW040 FEW250
      TEMPO 2009/2012 4SM MIFG BR SCT002
     FM201400 12005KT P6SM SCT040 SCT250
     FM202000 09006KT P6SM SCT050 BKN250
     FM210100 VRB02KT P6SM FEW040 BKN250=



000
FTUS42 KMLB 200500
TAFMLB
TAF
KMLB 200528Z 2006/2106 VRB03KT P6SM FEW040 FEW250
      TEMPO 2010/2012 4SM MIFG BR FEW001
     FM201400 12008KT P6SM SCT040 SCT250
     FM210100 15003KT P6SM SCT040 BKN250=



000
FTUS42 KMLB 200500
TAFMCO
TAF
KMCO 200528Z 2006/2106 VRB03KT P6SM FEW040 FEW250
      TEMPO 2009/2012 4SM MIFG BR SCT002
     FM201400 12005KT P6SM SCT040 SCT250
     FM202000 09006KT P6SM SCT050 BKN250
     FM210100 VRB02KT P6SM FEW040 BKN250=



000
FTUS42 KMLB 200500
TAFVRB
TAF
KVRB 200528Z 2006/2106 VRB03KT P6SM FEW040 FEW250
      TEMPO 2009/2012 5SM MIFG BR
     FM201400 12008KT P6SM FEW040 SCT250
     FM210000 16003KT P6SM SCT040 OVC250=



000
FTUS42 KMLB 200500
TAFDAB
TAF
KDAB 200528Z 2006/2106 06007KT P6SM VCSH SCT040 BKN060
     FM201400 08006KT P6SM VCSH BKN040 BKN060
     FM202200 VRB03KT P6SM SCT040 BKN250=



000
FTUS42 KMLB 200500
TAFSFB
TAF
KSFB 200528Z 2006/2106 VRB02KT P6SM BKN050
      TEMPO 2010/2012 6SM MIFG BR
     FM201400 13006KT P6SM SCT040 SCT250
     FM201900 10006KT P6SM SCT050 BKN250
     FM210100 VRB02KT P6SM FEW040 BKN250=



000
FTUS42 KMLB 200300 AAA
TAFMCO
TAF AMD
KMCO 200300Z 2003/2024 01007KT P6SM FEW040 SCT300
     FM200600 02003KT P6SM SCT025 SCT300
      TEMPO 2010/2012 5SM MIFG BR
     FM201400 10004KT P6SM SCT035 BKN300
     FM201800 13006KT P6SM SCT045 BKN300=



000
FTUS42 KMLB 192300
TAFDAB
TAF
KDAB 192339Z 2000/2024 01008KT P6SM FEW035 FEW100 SCT250
     FM200300 VRB03KT P6SM BKN035
     FM201500 08006KT P6SM SCT040 BKN250=



000
FTUS42 KMLB 192300
TAFMLB
TAF
KMLB 192339Z 2000/2024 36006KT P6SM SCT035 SCT250
     FM200300 05006KT P6SM BKN035
     FM201500 11007KT P6SM SCT035 BKN250=



000
FTUS42 KMLB 192300
TAFMCO
TAF
KMCO 192339Z 2000/2024 05009KT P6SM FEW050 SCT300
     FM200300 02003KT P6SM SCT025 SCT300
      TEMPO 2010/2012 5SM MIFG BR
     FM201400 10004KT P6SM SCT035 BKN300
     FM201800 13006KT P6SM SCT045 BKN300=



000
FTUS42 KMLB 192300
TAFSFB
TAF
KSFB 192339Z 2000/2024 05005KT P6SM SCT300
     FM200300 02003KT P6SM SCT025 SCT300
      TEMPO 2010/2012 5SM MIFG BR
     FM201400 10004KT P6SM SCT035 BKN300
     FM201800 13006KT P6SM SCT045 BKN300=



000
FTUS42 KMLB 192300
TAFDAB
TAF
KDAB 192339Z 2000/2024 01008KT P6SM FEW035 FEW100 SCT250
     FM200300 VRB03KT P6SM BKN035
     FM201500 08006KT P6SM SCT040 BKN250=



000
FTUS42 KMLB 192300
TAFMCO
TAF
KMCO 192339Z 2000/2024 05009KT P6SM FEW050 SCT300
     FM200300 02003KT P6SM SCT025 SCT300
      TEMPO 2010/2012 5SM MIFG BR
     FM201400 10004KT P6SM SCT035 BKN300
     FM201800 13006KT P6SM SCT045 BKN300=



000
FTUS42 KMLB 192300
TAFSFB
TAF
KSFB 192339Z 2000/2024 05005KT P6SM SCT300
     FM200300 02003KT P6SM SCT025 SCT300
      TEMPO 2010/2012 5SM MIFG BR
     FM201400 10004KT P6SM SCT035 BKN300
     FM201800 13006KT P6SM SCT045 BKN300=



000
FTUS42 KMLB 192300
TAFVRB
TAF
KVRB 192339Z 2000/2024 04003KT P6SM FEW035 SCT250
     FM200100 VRB03KT P6SM SCT035 SCT250
     FM201500 12007KT P6SM SCT035 SCT250=



000
FTUS42 KMLB 192300
TAFMLB
TAF
KMLB 192339Z 2000/2024 36006KT P6SM SCT035 SCT250
     FM200300 05006KT P6SM BKN035
     FM201500 11007KT P6SM SCT035 BKN250=



000
FTUS42 KMLB 192300
TAFVRB
TAF
KVRB 192339Z 2000/2024 04003KT P6SM FEW035 SCT250
     FM200100 VRB03KT P6SM SCT035 SCT250
     FM201500 12007KT P6SM SCT035 SCT250=



000
FTUS42 KMLB 192100 AAA
TAFMCO
TAF AMD
KMCO 192109Z 1921/2018 05010KT P6SM SCT050 SCT300
     FM200300 02003KT P6SM FEW250
      TEMPO 2010/2012 5SM MIFG BR
     FM201500 12004KT P6SM SCT035 BKN300=



000
FTUS42 KMLB 191700
TAFVRB
TAF
KVRB 191740Z 1918/2018 04009KT P6SM SKC
     FM200100 05004KT P6SM SCT035
     FM201500 11005KT P6SM SCT035=



000
FTUS42 KMLB 191700
TAFSFB
TAF
KSFB 191740Z 1918/2018 04007KT P6SM SCT040 SCT300
     FM200100 02003KT P6SM FEW250
      TEMPO 2010/2012 5SM MIFG BR
     FM201500 13004KT P6SM FEW035=



000
FTUS42 KMLB 191700
TAFMCO
TAF
KMCO 191740Z 1918/2018 04007KT P6SM SCT040 SCT300
     FM200100 02003KT P6SM FEW250
      TEMPO 2010/2012 5SM MIFG BR
     FM201500 12004KT P6SM FEW035=



000
FTUS42 KMLB 191700
TAFDAB
TAF
KDAB 191740Z 1918/2018 03012KT P6SM FEW050 SCT250
     FM200200 04005KT P6SM SCT035
     FM201500 08005KT P6SM SCT035=



000
FTUS42 KMLB 191700
TAFMLB
TAF
KMLB 191740Z 1918/2018 04008KT P6SM FEW040
     FM200200 04006KT P6SM SCT035
     FM201500 11005KT P6SM SCT035=



000
FTUS42 KMLB 191400 AAA
TAFMCO
TAF AMD
KMCO 191459Z 1915/2012 04009KT P6SM FEW040 SCT300
     FM200100 02005KT P6SM FEW045 SCT250=



    US Dept of Commerce
    National Oceanic and Atmospheric Administration
    National Weather Service
    1325 East West Highway
    Silver Spring, MD 20910
    Page Author: NWS Internet Services Team
Disclaimer
Information Quality
Credits
Glossary
Privacy Policy
Freedom of Information Act (FOIA)
About Us
Career Opportunities